Burningtown, North Carolina
Current Conditions -  °F | °C
As of 3:55 PM on Friday 19 Dec 2014 (Local Time) from KRHP Reporting Station
Clear Clear  
Wind Chill: 46°   Ceiling: Unl
Heat Index: 48°   Visibility: 10mi
Dew Point: 37°   Wind: 6mph
Humidity: 64%   Direction: 270°W
Pressure: 30.09"   Gusts: NA
Location:  35.1737°N, 83.4215°W
Report Text: KRHP 192055Z AUTO 27005KT 10SM CLR 09/03 A3009 RMK AO2 T00900026
Loading
Personal Weather Stations






























Interactive Weather Map New forecast layout! Learn more

10-Day Weather Forecast

Advertisements
Track Severe Weather on mobile